ADDS METAR Data INFO
IDs: Format: Raw Decoded Include TAF

Data at: 0743 UTC 21 Jul 2018

PACD 210715Z AUTO 16008KT 10SM SCT013 OVC019 12/11 A3006 RMK AO2 T01220111 TSNO
PACD 210653Z AUTO 16008KT 10SM BKN014 OVC019 12/11 A3006 RMK AO2 SLP178 T01220111 TSNO
PACD 210553Z AUTO 17012KT 10SM OVC017 13/12 A3005 RMK AO2 SLP176 T01280117 10156 20128 56001 TSNO
PACD 210453Z AUTO 16009KT 10SM OVC016 13/12 A3005 RMK AO2 SLP176 T01330117 TSNO
PACD 210353Z AUTO 16009KT 10SM OVC017 14/11 A3005 RMK AO2 SLP176 T01390111 TSNO
PACD 210253Z AUTO 15009KT 10SM OVC017 14/12 A3005 RMK AO2 SLP178 T01440117 58001 TSNO
PACD 210153Z AUTO 16012KT 10SM BKN023 BKN028 OVC035 14/11 A3006 RMK AO2 SLP178 T01440106 TSNO
PACD 210126Z 16011KT 10SM BKN028 OVC038 14/11 A3006 RMK AO2 T01440106
PACD 210053Z 16015KT 10SM FEW030 OVC044 15/11 A3006 RMK AO2 SLP179 T01500106
PACD 202353Z 16016KT 10SM FEW028 BKN050 16/11 A3006 RMK AO2 SLP178 T01560106 10172 20117 56003
PACD 202340Z 17017KT 10SM SCT028 BKN050 17/11 A3005 RMK AO2 T01670111
PACD 202327Z 16017KT 10SM BKN028 16/11 A3006 RMK AO2 T01610111
PACD 202253Z 16018KT 10SM FEW050 16/11 A3006 RMK AO2 SLP179 T01610111
PACD 202153Z 17018KT 10SM FEW043 16/11 A3006 RMK AO2 PK WND 16027/2057 SLP180 T01560106
PACD 202053Z 16022G27KT 9SM SCT015 OVC060 15/11 A3007 RMK AO2 PK WND 16027/2052 SLP182 T01500106 56000
PACD 202049Z 16020G24KT 9SM SCT015 OVC060 14/11 A3007 RMK AO2
PACD 202010Z 17018KT 10SM BKN015 13/10 A3006 RMK AO2 T01330100
PACD 201953Z 17017G24KT 10SM BKN014 13/10 A3006 RMK AO2 SLP179 T01330100
PACD 201853Z 16018KT 10SM SCT029 13/10 A3007 RMK AO2 SLP182 T01280100
PACD 201753Z 16018G24KT 10SM BKN038 OVC055 12/10 A3007 RMK AO2 SLP181 T01170100 10117 20100 55000 $
PACD 201653Z 16015G21KT 10SM OVC036 11/10 A3007 RMK AO2 SLP182 T01060100 $
PACD 201553Z 16019G23KT 10SM OVC035 10/09 A3006 RMK AO2 SLP180 T01000094 $
PACD 201531Z AUTO 17016KT 10SM FEW004 SCT019 OVC036 10/10 A3006 RMK AO2 T01000100 TSNO $
PACD 201508Z AUTO 16013KT 10SM FEW004 BKN019 OVC035 11/10 A3007 RMK AO2 T01060100 TSNO $
PACD 201453Z AUTO 17013KT 10SM BKN018 BKN033 OVC070 11/10 A3007 RMK AO2 SLP181 T01060100 53000 TSNO $
PACD 201353Z AUTO 17007KT 10SM SCT036 OVC065 11/10 A3006 RMK AO2 SLP178 T01110100 TSNO $
PACD 201253Z AUTO 14005KT 10SM FEW022 SCT038 OVC049 12/10 A3006 RMK AO2 SLP179 T01170100 TSNO $
PACD 201153Z AUTO 17010KT 10SM SCT028 OVC033 11/10 A3006 RMK AO2 SLP181 60000 70009 T01110100 10133 20111 58004 TSNO $
PACD 201053Z AUTO 18004KT 10SM BKN029 OVC035 12/10 A3007 RMK AO2 SLP184 T01170100 TSNO $
PACD 201039Z AUTO 17004KT 10SM FEW024 OVC033 12/10 A3007 RMK AO2 T01170100 TSNO $
PACD 200953Z AUTO 15004KT 10SM OVC029 12/10 A3008 RMK AO2 SLP185 T01170100 TSNO $
PACD 200949Z AUTO 12003KT 10SM OVC029 12/10 A3008 RMK AO2 TSNO $
PACD 200853Z AUTO 12007KT 10SM BKN035 OVC055 12/10 A3008 RMK AO2 SLP186 60000 T01170100 401390094 51004 TSNO $
PACD 200753Z AUTO 00000KT 10SM FEW032 BKN044 OVC070 12/09 A3008 RMK AO2 RAE0658 SLP185 P0000 T01170094 TSNO $
PACD 200653Z AUTO 17006KT 10SM -RA SCT037 OVC110 12/10 A3007 RMK AO2 RAB49 SLP183 P0000 T01220100 TSNO $
PACD 200553Z AUTO 15006KT 10SM SCT034 13/09 A3007 RMK AO2 SLP182 60000 T01330094 10139 20122 55004 TSNO $
PACD 200453Z AUTO 17006KT 10SM FEW023 BKN039 OVC055 13/10 A3007 RMK AO2 SLP182 T01280100 TSNO $
PACD 200414Z AUTO 09009KT 10SM SCT023 BKN037 OVC090 13/09 A3007 RMK AO2 T01280094 TSNO $
PACD 200403Z AUTO 12008KT 10SM SCT021 BKN026 OVC042 13/10 A3007 RMK AO2 T01280100 TSNO $
PACD 200353Z AUTO 13007KT 10SM SCT025 BKN033 OVC050 13/10 A3008 RMK AO2 SLP186 T01280100 TSNO $
PACD 200341Z AUTO 15009KT 10SM BKN025 OVC050 13/09 A3008 RMK AO2 T01280094 TSNO $
PACD 200253Z AUTO 13009KT 10SM OVC034 13/09 A3008 RMK AO2 SLP186 60000 T01280094 51002 TSNO $
PACD 200153Z AUTO 07010KT 10SM OVC031 12/09 A3007 RMK AO2 SLP184 T01220094 TSNO $
PACD 200053Z 10009KT 10SM OVC032 13/09 A3008 RMK AO2 RAB2355E04 SLP188 P0000 T01330094 $
PACD 192353Z 08014G22KT 10SM BKN040 OVC048 12/09 A3007 RMK AO2 SLP184 60000 T01220089 10133 20106 58005
PACD 192253Z 15008KT 10SM FEW047 OVC060 13/10 A3009 RMK AO2 SLP188 T01330100
PACD 192153Z 15014KT 10SM SCT025 OVC034 13/11 A3009 RMK AO2 WSHFT 2103 SLP190 T01330106
PACD 192123Z 15014KT 10SM BKN016 OVC022 13/09 A3009 RMK AO2 WSHFT 2103 T01280094
PACD 192053Z 10SM FEW015 OVC026 13/11 A3009 RMK AO2 RAB51E52 SLP189 P0000 60000 T01330106 51004
PACD 191953Z 10007KT 10SM BKN026 OVC040 12/09 A3009 RMK AO2 SLP189 T01170094